sensor_id;sensor_type;location;lat;lon;timestamp;P1;durP1;ratioP1;P2;durP2;ratioP2
5710;SDS011;61291;52.524;13.422;2023-03-23T00:01:46;59.20;;;55.43;;
5710;SDS011;61291;52.524;13.422;2023-03-23T00:04:14;63.00;;;58.93;;
5710;SDS011;61291;52.524;13.422;2023-03-23T00:06:41;59.57;;;55.87;;
5710;SDS011;61291;52.524;13.422;2023-03-23T00:09:07;58.87;;;55.40;;
5710;SDS011;61291;52.524;13.422;2023-03-23T00:11:34;62.10;;;58.20;;
5710;SDS011;61291;52.524;13.422;2023-03-23T00:14:00;61.57;;;57.87;;
5710;SDS011;61291;52.524;13.422;2023-03-23T00:16:26;63.57;;;59.53;;
5710;SDS011;61291;52.524;13.422;2023-03-23T00:19:03;63.73;;;59.83;;
5710;SDS011;61291;52.524;13.422;2023-03-23T00:21:34;65.30;;;61.03;;
5710;SDS011;61291;52.524;13.422;2023-03-23T00:24:05;62.50;;;58.40;;
5710;SDS011;61291;52.524;13.422;2023-03-23T00:26:33;64.37;;;60.13;;
5710;SDS011;61291;52.524;13.422;2023-03-23T00:29:01;63.17;;;59.47;;
5710;SDS011;61291;52.524;13.422;2023-03-23T00:31:29;64.50;;;59.50;;
5710;SDS011;61291;52.524;13.422;2023-03-23T00:34:00;61.73;;;57.93;;
5710;SDS011;61291;52.524;13.422;2023-03-23T00:36:28;63.80;;;59.80;;
5710;SDS011;61291;52.524;13.422;2023-03-23T00:38:55;61.13;;;57.50;;
5710;SDS011;61291;52.524;13.422;2023-03-23T00:41:24;60.90;;;57.30;;
5710;SDS011;61291;52.524;13.422;2023-03-23T00:43:52;60.43;;;56.93;;
5710;SDS011;61291;52.524;13.422;2023-03-23T00:46:18;60.20;;;56.40;;
5710;SDS011;61291;52.524;13.422;2023-03-23T00:48:45;60.80;;;57.23;;
5710;SDS011;61291;52.524;13.422;2023-03-23T00:51:11;61.30;;;57.70;;
5710;SDS011;61291;52.524;13.422;2023-03-23T00:53:40;63.30;;;59.00;;
5710;SDS011;61291;52.524;13.422;2023-03-23T00:56:06;62.93;;;58.70;;
5710;SDS011;61291;52.524;13.422;2023-03-23T00:58:32;60.37;;;56.73;;
5710;SDS011;61291;52.524;13.422;2023-03-23T01:00:58;60.37;;;56.77;;
5710;SDS011;61291;52.524;13.422;2023-03-23T01:03:23;61.83;;;58.20;;
5710;SDS011;61291;52.524;13.422;2023-03-23T01:05:50;60.40;;;56.87;;
5710;SDS011;61291;52.524;13.422;2023-03-23T01:08:16;61.13;;;57.43;;
5710;SDS011;61291;52.524;13.422;2023-03-23T01:10:43;63.10;;;59.20;;
5710;SDS011;61291;52.524;13.422;2023-03-23T01:13:12;61.70;;;58.00;;
5710;SDS011;61291;52.524;13.422;2023-03-23T01:15:38;62.67;;;58.77;;
5710;SDS011;61291;52.524;13.422;2023-03-23T01:18:04;47.35;;;44.55;;
5710;SDS011;61291;52.524;13.422;2023-03-23T01:20:29;60.37;;;56.57;;
5710;SDS011;61291;52.524;13.422;2023-03-23T01:22:56;60.80;;;57.10;;
5710;SDS011;61291;52.524;13.422;2023-03-23T01:25:26;60.50;;;56.73;;
5710;SDS011;61291;52.524;13.422;2023-03-23T01:27:52;62.57;;;58.17;;
5710;SDS011;61291;52.524;13.422;2023-03-23T01:30:17;61.37;;;57.67;;
5710;SDS011;61291;52.524;13.422;2023-03-23T01:32:43;60.57;;;56.90;;
5710;SDS011;61291;52.524;13.422;2023-03-23T01:35:09;60.07;;;56.37;;
5710;SDS011;61291;52.524;13.422;2023-03-23T01:37:34;63.00;;;58.80;;
5710;SDS011;61291;52.524;13.422;2023-03-23T01:40:01;60.53;;;56.90;;
5710;SDS011;61291;52.524;13.422;2023-03-23T01:42:32;60.53;;;56.27;;
5710;SDS011;61291;52.524;13.422;2023-03-23T01:47:49;61.10;;;57.23;;
5710;SDS011;61291;52.524;13.422;2023-03-23T01:50:22;60.73;;;56.93;;
5710;SDS011;61291;52.524;13.422;2023-03-23T01:52:50;63.27;;;58.60;;
5710;SDS011;61291;52.524;13.422;2023-03-23T01:55:18;59.90;;;56.20;;
5710;SDS011;61291;52.524;13.422;2023-03-23T01:57:45;61.90;;;57.90;;
5710;SDS011;61291;52.524;13.422;2023-03-23T02:00:10;61.73;;;57.73;;
5710;SDS011;61291;52.524;13.422;2023-03-23T02:02:41;61.20;;;57.40;;
5710;SDS011;61291;52.524;13.422;2023-03-23T02:05:09;61.20;;;57.33;;
5710;SDS011;61291;52.524;13.422;2023-03-23T02:07:38;62.13;;;57.90;;
5710;SDS011;61291;52.524;13.422;2023-03-23T02:10:04;61.90;;;58.10;;
5710;SDS011;61291;52.524;13.422;2023-03-23T02:12:29;60.93;;;57.13;;
5710;SDS011;61291;52.524;13.422;2023-03-23T02:14:55;61.97;;;58.07;;
5710;SDS011;61291;52.524;13.422;2023-03-23T02:17:30;60.70;;;56.80;;
5710;SDS011;61291;52.524;13.422;2023-03-23T02:22:59;61.70;;;58.00;;
5710;SDS011;61291;52.524;13.422;2023-03-23T02:25:55;62.50;;;58.43;;
5710;SDS011;61291;52.524;13.422;2023-03-23T02:28:57;61.97;;;58.10;;
5710;SDS011;61291;52.524;13.422;2023-03-23T02:32:13;61.20;;;57.30;;
5710;SDS011;61291;52.524;13.422;2023-03-23T02:35:02;59.40;;;55.90;;
5710;SDS011;61291;52.524;13.422;2023-03-23T02:37:44;58.70;;;55.30;;
5710;SDS011;61291;52.524;13.422;2023-03-23T02:40:23;58.87;;;55.47;;
5710;SDS011;61291;52.524;13.422;2023-03-23T02:42:53;59.93;;;55.90;;
5710;SDS011;61291;52.524;13.422;2023-03-23T02:45:21;60.03;;;56.03;;
5710;SDS011;61291;52.524;13.422;2023-03-23T02:47:49;46.30;;;43.40;;
5710;SDS011;61291;52.524;13.422;2023-03-23T02:50:17;58.60;;;54.97;;
5710;SDS011;61291;52.524;13.422;2023-03-23T02:52:46;59.13;;;55.43;;
5710;SDS011;61291;52.524;13.422;2023-03-23T02:55:13;59.53;;;55.70;;
5710;SDS011;61291;52.524;13.422;2023-03-23T02:57:41;59.63;;;55.87;;
5710;SDS011;61291;52.524;13.422;2023-03-23T03:00:10;59.77;;;55.67;;
5710;SDS011;61291;52.524;13.422;2023-03-23T03:02:39;59.40;;;55.70;;
5710;SDS011;61291;52.524;13.422;2023-03-23T03:05:26;60.03;;;56.23;;
5710;SDS011;61291;52.524;13.422;2023-03-23T03:10:57;59.63;;;56.13;;
5710;SDS011;61291;52.524;13.422;2023-03-23T03:16:23;64.13;;;59.93;;
5710;SDS011;61291;52.524;13.422;2023-03-23T03:21:40;63.30;;;59.30;;
5710;SDS011;61291;52.524;13.422;2023-03-23T03:24:08;61.63;;;57.80;;
5710;SDS011;61291;52.524;13.422;2023-03-23T03:26:36;63.83;;;59.67;;
5710;SDS011;61291;52.524;13.422;2023-03-23T03:29:06;64.07;;;59.97;;
5710;SDS011;61291;52.524;13.422;2023-03-23T03:31:33;63.27;;;59.37;;
5710;SDS011;61291;52.524;13.422;2023-03-23T03:34:02;61.57;;;57.93;;
5710;SDS011;61291;52.524;13.422;2023-03-23T03:36:29;62.47;;;57.80;;
5710;SDS011;61291;52.524;13.422;2023-03-23T03:39:00;61.33;;;57.63;;
5710;SDS011;61291;52.524;13.422;2023-03-23T03:41:32;60.13;;;56.50;;
5710;SDS011;61291;52.524;13.422;2023-03-23T03:44:02;63.00;;;59.20;;
5710;SDS011;61291;52.524;13.422;2023-03-23T03:46:28;61.43;;;57.60;;
5710;SDS011;61291;52.524;13.422;2023-03-23T03:48:56;62.47;;;58.10;;
5710;SDS011;61291;52.524;13.422;2023-03-23T03:51:22;61.83;;;58.07;;
5710;SDS011;61291;52.524;13.422;2023-03-23T03:53:48;61.20;;;57.10;;
5710;SDS011;61291;52.524;13.422;2023-03-23T03:56:14;60.23;;;56.63;;
5710;SDS011;61291;52.524;13.422;2023-03-23T03:58:39;63.27;;;59.17;;
5710;SDS011;61291;52.524;13.422;2023-03-23T04:01:07;63.03;;;58.70;;
5710;SDS011;61291;52.524;13.422;2023-03-23T04:03:35;61.27;;;57.47;;
5710;SDS011;61291;52.524;13.422;2023-03-23T04:06:00;59.93;;;56.00;;
5710;SDS011;61291;52.524;13.422;2023-03-23T04:08:27;61.07;;;57.27;;
5710;SDS011;61291;52.524;13.422;2023-03-23T04:10:53;59.13;;;55.10;;
5710;SDS011;61291;52.524;13.422;2023-03-23T04:13:19;58.73;;;55.00;;
5710;SDS011;61291;52.524;13.422;2023-03-23T04:15:45;56.60;;;52.87;;
5710;SDS011;61291;52.524;13.422;2023-03-23T04:18:11;59.57;;;55.17;;
5710;SDS011;61291;52.524;13.422;2023-03-23T04:20:37;60.03;;;56.03;;
5710;SDS011;61291;52.524;13.422;2023-03-23T04:23:03;58.93;;;55.03;;
5710;SDS011;61291;52.524;13.422;2023-03-23T04:25:28;59.80;;;56.00;;
5710;SDS011;61291;52.524;13.422;2023-03-23T04:27:57;60.53;;;56.60;;
5710;SDS011;61291;52.524;13.422;2023-03-23T04:30:26;60.90;;;56.70;;
5710;SDS011;61291;52.524;13.422;2023-03-23T04:32:54;58.70;;;54.97;;
5710;SDS011;61291;52.524;13.422;2023-03-23T04:35:21;60.50;;;56.90;;
5710;SDS011;61291;52.524;13.422;2023-03-23T04:37:51;60.60;;;56.77;;
5710;SDS011;61291;52.524;13.422;2023-03-23T04:40:18;62.03;;;58.03;;
5710;SDS011;61291;52.524;13.422;2023-03-23T04:42:43;62.00;;;57.77;;
5710;SDS011;61291;52.524;13.422;2023-03-23T04:45:14;60.90;;;57.07;;
5710;SDS011;61291;52.524;13.422;2023-03-23T04:47:46;59.83;;;56.00;;
5710;SDS011;61291;52.524;13.422;2023-03-23T04:50:17;61.13;;;57.03;;
5710;SDS011;61291;52.524;13.422;2023-03-23T04:52:45;62.57;;;58.27;;
5710;SDS011;61291;52.524;13.422;2023-03-23T04:55:11;63.10;;;58.47;;
5710;SDS011;61291;52.524;13.422;2023-03-23T04:57:38;60.70;;;56.50;;
5710;SDS011;61291;52.524;13.422;2023-03-23T05:00:04;64.10;;;59.90;;
5710;SDS011;61291;52.524;13.422;2023-03-23T05:02:34;63.40;;;58.83;;
5710;SDS011;61291;52.524;13.422;2023-03-23T05:05:00;59.20;;;55.37;;
5710;SDS011;61291;52.524;13.422;2023-03-23T05:07:26;61.10;;;57.30;;
5710;SDS011;61291;52.524;13.422;2023-03-23T05:09:51;63.93;;;59.73;;
5710;SDS011;61291;52.524;13.422;2023-03-23T05:12:17;63.50;;;59.40;;
5710;SDS011;61291;52.524;13.422;2023-03-23T05:14:43;62.97;;;58.00;;
5710;SDS011;61291;52.524;13.422;2023-03-23T05:17:08;60.87;;;56.87;;
5710;SDS011;61291;52.524;13.422;2023-03-23T05:19:35;59.77;;;55.77;;
5710;SDS011;61291;52.524;13.422;2023-03-23T05:22:01;65.07;;;60.87;;
5710;SDS011;61291;52.524;13.422;2023-03-23T05:24:31;64.03;;;59.20;;
5710;SDS011;61291;52.524;13.422;2023-03-23T05:26:57;60.87;;;56.47;;
5710;SDS011;61291;52.524;13.422;2023-03-23T05:29:24;62.93;;;58.67;;
5710;SDS011;61291;52.524;13.422;2023-03-23T05:31:50;64.27;;;58.17;;
5710;SDS011;61291;52.524;13.422;2023-03-23T05:34:17;66.63;;;61.93;;
5710;SDS011;61291;52.524;13.422;2023-03-23T05:36:44;58.97;;;54.87;;
5710;SDS011;61291;52.524;13.422;2023-03-23T05:39:12;61.93;;;57.83;;
5710;SDS011;61291;52.524;13.422;2023-03-23T05:41:39;65.33;;;60.77;;
5710;SDS011;61291;52.524;13.422;2023-03-23T05:44:04;65.00;;;60.33;;
5710;SDS011;61291;52.524;13.422;2023-03-23T05:46:30;57.07;;;53.07;;
5710;SDS011;61291;52.524;13.422;2023-03-23T05:48:56;60.10;;;55.67;;
5710;SDS011;61291;52.524;13.422;2023-03-23T05:51:21;62.93;;;58.33;;
5710;SDS011;61291;52.524;13.422;2023-03-23T05:53:47;61.87;;;57.73;;
5710;SDS011;61291;52.524;13.422;2023-03-23T05:56:13;59.10;;;55.20;;
5710;SDS011;61291;52.524;13.422;2023-03-23T05:58:39;58.43;;;54.63;;
5710;SDS011;61291;52.524;13.422;2023-03-23T06:01:08;60.23;;;55.97;;
5710;SDS011;61291;52.524;13.422;2023-03-23T06:03:34;61.30;;;57.20;;
5710;SDS011;61291;52.524;13.422;2023-03-23T06:06:01;57.37;;;53.57;;
5710;SDS011;61291;52.524;13.422;2023-03-23T06:08:27;54.20;;;50.60;;
5710;SDS011;61291;52.524;13.422;2023-03-23T06:10:53;55.07;;;50.63;;
5710;SDS011;61291;52.524;13.422;2023-03-23T06:13:20;57.50;;;53.70;;
5710;SDS011;61291;52.524;13.422;2023-03-23T06:15:45;58.73;;;54.63;;
5710;SDS011;61291;52.524;13.422;2023-03-23T06:18:11;55.90;;;52.00;;
5710;SDS011;61291;52.524;13.422;2023-03-23T06:20:37;59.83;;;55.27;;
5710;SDS011;61291;52.524;13.422;2023-03-23T06:23:04;62.00;;;57.63;;
5710;SDS011;61291;52.524;13.422;2023-03-23T06:25:30;61.33;;;56.50;;
5710;SDS011;61291;52.524;13.422;2023-03-23T06:27:55;102.67;;;58.70;;
5710;SDS011;61291;52.524;13.422;2023-03-23T06:30:21;59.83;;;55.37;;
5710;SDS011;61291;52.524;13.422;2023-03-23T06:32:47;64.87;;;60.20;;
5710;SDS011;61291;52.524;13.422;2023-03-23T06:35:13;60.93;;;56.87;;
5710;SDS011;61291;52.524;13.422;2023-03-23T06:37:40;67.27;;;62.73;;
5710;SDS011;61291;52.524;13.422;2023-03-23T06:40:06;60.20;;;55.07;;
5710;SDS011;61291;52.524;13.422;2023-03-23T06:42:32;52.90;;;48.90;;
5710;SDS011;61291;52.524;13.422;2023-03-23T06:44:58;60.63;;;56.80;;
5710;SDS011;61291;52.524;13.422;2023-03-23T06:47:25;61.50;;;57.13;;
5710;SDS011;61291;52.524;13.422;2023-03-23T06:49:51;61.87;;;56.03;;
5710;SDS011;61291;52.524;13.422;2023-03-23T06:52:17;65.40;;;60.50;;
5710;SDS011;61291;52.524;13.422;2023-03-23T06:54:42;64.03;;;58.70;;
5710;SDS011;61291;52.524;13.422;2023-03-23T06:57:08;59.43;;;55.07;;
5710;SDS011;61291;52.524;13.422;2023-03-23T06:59:34;63.23;;;57.30;;
5710;SDS011;61291;52.524;13.422;2023-03-23T07:01:59;66.60;;;60.17;;
5710;SDS011;61291;52.524;13.422;2023-03-23T07:04:25;64.07;;;59.67;;
5710;SDS011;61291;52.524;13.422;2023-03-23T07:06:51;63.47;;;58.90;;
5710;SDS011;61291;52.524;13.422;2023-03-23T07:09:16;65.90;;;60.97;;
5710;SDS011;61291;52.524;13.422;2023-03-23T07:11:42;59.20;;;55.30;;
5710;SDS011;61291;52.524;13.422;2023-03-23T07:14:08;64.57;;;57.93;;
5710;SDS011;61291;52.524;13.422;2023-03-23T07:16:34;67.20;;;61.60;;
5710;SDS011;61291;52.524;13.422;2023-03-23T07:19:00;82.43;;;68.43;;
5710;SDS011;61291;52.524;13.422;2023-03-23T07:21:25;60.90;;;56.83;;
5710;SDS011;61291;52.524;13.422;2023-03-23T07:23:51;63.53;;;59.03;;
5710;SDS011;61291;52.524;13.422;2023-03-23T07:26:17;60.10;;;55.73;;
5710;SDS011;61291;52.524;13.422;2023-03-23T07:28:42;65.13;;;60.30;;
5710;SDS011;61291;52.524;13.422;2023-03-23T07:31:08;63.70;;;59.60;;
5710;SDS011;61291;52.524;13.422;2023-03-23T07:33:34;62.57;;;58.57;;
5710;SDS011;61291;52.524;13.422;2023-03-23T07:36:00;66.20;;;61.80;;
5710;SDS011;61291;52.524;13.422;2023-03-23T07:38:28;63.33;;;58.40;;
5710;SDS011;61291;52.524;13.422;2023-03-23T07:40:54;68.30;;;62.80;;
5710;SDS011;61291;52.524;13.422;2023-03-23T07:43:21;64.40;;;59.93;;
5710;SDS011;61291;52.524;13.422;2023-03-23T07:45:47;64.50;;;59.93;;
5710;SDS011;61291;52.524;13.422;2023-03-23T07:48:13;71.13;;;66.43;;
5710;SDS011;61291;52.524;13.422;2023-03-23T07:50:38;70.17;;;65.57;;
5710;SDS011;61291;52.524;13.422;2023-03-23T07:53:04;64.77;;;60.57;;
5710;SDS011;61291;52.524;13.422;2023-03-23T07:55:29;65.50;;;61.20;;
5710;SDS011;61291;52.524;13.422;2023-03-23T07:57:55;67.93;;;62.93;;
5710;SDS011;61291;52.524;13.422;2023-03-23T08:00:22;66.43;;;61.87;;
5710;SDS011;61291;52.524;13.422;2023-03-23T08:02:50;68.07;;;63.37;;
5710;SDS011;61291;52.524;13.422;2023-03-23T08:05:16;64.47;;;60.13;;
5710;SDS011;61291;52.524;13.422;2023-03-23T08:07:43;65.33;;;60.30;;
5710;SDS011;61291;52.524;13.422;2023-03-23T08:10:10;61.10;;;57.30;;
5710;SDS011;61291;52.524;13.422;2023-03-23T08:12:38;69.23;;;64.53;;
5710;SDS011;61291;52.524;13.422;2023-03-23T08:15:04;72.53;;;67.50;;
5710;SDS011;61291;52.524;13.422;2023-03-23T08:17:31;68.77;;;64.10;;
5710;SDS011;61291;52.524;13.422;2023-03-23T08:19:57;70.13;;;65.70;;
5710;SDS011;61291;52.524;13.422;2023-03-23T08:22:23;71.23;;;66.53;;
5710;SDS011;61291;52.524;13.422;2023-03-23T08:24:49;68.50;;;64.00;;
5710;SDS011;61291;52.524;13.422;2023-03-23T08:27:15;69.07;;;64.87;;
5710;SDS011;61291;52.524;13.422;2023-03-23T08:29:40;72.03;;;67.07;;
5710;SDS011;61291;52.524;13.422;2023-03-23T08:32:08;69.17;;;64.20;;
5710;SDS011;61291;52.524;13.422;2023-03-23T08:34:34;65.03;;;60.93;;
5710;SDS011;61291;52.524;13.422;2023-03-23T08:36:59;61.17;;;57.27;;
5710;SDS011;61291;52.524;13.422;2023-03-23T08:39:25;60.73;;;56.33;;
5710;SDS011;61291;52.524;13.422;2023-03-23T08:41:51;66.70;;;62.20;;
5710;SDS011;61291;52.524;13.422;2023-03-23T08:44:16;64.77;;;60.60;;
5710;SDS011;61291;52.524;13.422;2023-03-23T08:46:42;56.33;;;52.60;;
5710;SDS011;61291;52.524;13.422;2023-03-23T08:49:07;67.30;;;62.23;;
5710;SDS011;61291;52.524;13.422;2023-03-23T08:51:33;62.50;;;58.50;;
5710;SDS011;61291;52.524;13.422;2023-03-23T08:53:58;61.77;;;57.87;;
5710;SDS011;61291;52.524;13.422;2023-03-23T08:56:24;63.13;;;58.73;;
5710;SDS011;61291;52.524;13.422;2023-03-23T08:58:51;65.13;;;60.57;;
5710;SDS011;61291;52.524;13.422;2023-03-23T09:01:16;67.47;;;62.57;;
5710;SDS011;61291;52.524;13.422;2023-03-23T09:03:41;70.50;;;65.80;;
5710;SDS011;61291;52.524;13.422;2023-03-23T09:06:08;70.90;;;66.50;;
5710;SDS011;61291;52.524;13.422;2023-03-23T09:08:34;64.90;;;60.90;;
5710;SDS011;61291;52.524;13.422;2023-03-23T09:11:02;67.00;;;62.70;;
5710;SDS011;61291;52.524;13.422;2023-03-23T09:13:28;65.73;;;61.37;;
5710;SDS011;61291;52.524;13.422;2023-03-23T09:15:54;76.20;;;68.90;;
5710;SDS011;61291;52.524;13.422;2023-03-23T09:18:20;70.30;;;65.17;;
5710;SDS011;61291;52.524;13.422;2023-03-23T09:20:46;66.50;;;61.50;;
5710;SDS011;61291;52.524;13.422;2023-03-23T09:23:15;70.43;;;65.90;;
5710;SDS011;61291;52.524;13.422;2023-03-23T09:25:41;68.37;;;63.13;;
5710;SDS011;61291;52.524;13.422;2023-03-23T09:28:06;66.20;;;62.00;;
5710;SDS011;61291;52.524;13.422;2023-03-23T09:30:33;80.43;;;74.13;;
5710;SDS011;61291;52.524;13.422;2023-03-23T09:33:01;69.90;;;64.57;;
5710;SDS011;61291;52.524;13.422;2023-03-23T09:35:28;71.80;;;66.50;;
5710;SDS011;61291;52.524;13.422;2023-03-23T09:37:54;68.20;;;63.83;;
5710;SDS011;61291;52.524;13.422;2023-03-23T09:40:21;72.90;;;68.03;;
5710;SDS011;61291;52.524;13.422;2023-03-23T09:42:59;154.83;;;82.83;;
5710;SDS011;61291;52.524;13.422;2023-03-23T09:48:38;66.43;;;62.20;;
5710;SDS011;61291;52.524;13.422;2023-03-23T09:51:17;67.90;;;63.67;;
5710;SDS011;61291;52.524;13.422;2023-03-23T09:53:49;67.10;;;62.50;;
5710;SDS011;61291;52.524;13.422;2023-03-23T09:56:18;74.80;;;70.40;;
5710;SDS011;61291;52.524;13.422;2023-03-23T09:58:46;74.10;;;66.20;;
5710;SDS011;61291;52.524;13.422;2023-03-23T10:01:35;75.63;;;69.50;;
5710;SDS011;61291;52.524;13.422;2023-03-23T10:06:57;72.00;;;67.27;;
5710;SDS011;61291;52.524;13.422;2023-03-23T10:09:24;69.07;;;64.50;;
5710;SDS011;61291;52.524;13.422;2023-03-23T10:11:56;69.40;;;65.27;;
5710;SDS011;61291;52.524;13.422;2023-03-23T10:15:32;61.90;;;58.00;;
5710;SDS011;61291;52.524;13.422;2023-03-23T10:17:46;70.70;;;65.50;;
5710;SDS011;61291;52.524;13.422;2023-03-23T10:23:33;64.87;;;60.47;;
5710;SDS011;61291;52.524;13.422;2023-03-23T10:26:17;69.30;;;64.40;;
5710;SDS011;61291;52.524;13.422;2023-03-23T10:29:11;68.50;;;64.10;;
5710;SDS011;61291;52.524;13.422;2023-03-23T10:31:43;67.47;;;63.37;;
5710;SDS011;61291;52.524;13.422;2023-03-23T10:34:15;101.13;;;69.10;;
5710;SDS011;61291;52.524;13.422;2023-03-23T10:36:58;197.73;;;83.57;;
5710;SDS011;61291;52.524;13.422;2023-03-23T10:39:32;66.90;;;61.93;;
5710;SDS011;61291;52.524;13.422;2023-03-23T10:42:09;67.30;;;62.23;;
5710;SDS011;61291;52.524;13.422;2023-03-23T10:44:35;67.33;;;62.80;;
5710;SDS011;61291;52.524;13.422;2023-03-23T10:47:05;77.80;;;70.63;;
5710;SDS011;61291;52.524;13.422;2023-03-23T10:52:20;76.83;;;70.60;;
5710;SDS011;61291;52.524;13.422;2023-03-23T10:55:01;66.37;;;61.87;;
5710;SDS011;61291;52.524;13.422;2023-03-23T10:57:29;68.93;;;64.83;;
5710;SDS011;61291;52.524;13.422;2023-03-23T11:00:06;67.53;;;63.43;;
5710;SDS011;61291;52.524;13.422;2023-03-23T11:02:46;70.60;;;65.87;;
5710;SDS011;61291;52.524;13.422;2023-03-23T11:05:24;68.23;;;63.67;;
5710;SDS011;61291;52.524;13.422;2023-03-23T11:07:54;70.57;;;66.10;;
5710;SDS011;61291;52.524;13.422;2023-03-23T11:10:25;66.77;;;62.47;;
5710;SDS011;61291;52.524;13.422;2023-03-23T11:13:01;70.27;;;65.77;;
5710;SDS011;61291;52.524;13.422;2023-03-23T11:15:30;77.70;;;68.83;;
5710;SDS011;61291;52.524;13.422;2023-03-23T11:18:03;71.27;;;61.40;;
5710;SDS011;61291;52.524;13.422;2023-03-23T11:20:42;64.10;;;60.10;;
5710;SDS011;61291;52.524;13.422;2023-03-23T11:23:20;67.37;;;62.17;;
5710;SDS011;61291;52.524;13.422;2023-03-23T11:25:55;66.53;;;62.20;;
5710;SDS011;61291;52.524;13.422;2023-03-23T11:28:31;65.27;;;60.90;;
5710;SDS011;61291;52.524;13.422;2023-03-23T11:31:00;64.67;;;60.40;;
5710;SDS011;61291;52.524;13.422;2023-03-23T11:33:29;63.87;;;59.57;;
5710;SDS011;61291;52.524;13.422;2023-03-23T11:36:06;74.20;;;66.03;;
5710;SDS011;61291;52.524;13.422;2023-03-23T11:38:33;70.63;;;65.70;;
5710;SDS011;61291;52.524;13.422;2023-03-23T11:41:00;69.57;;;64.80;;
5710;SDS011;61291;52.524;13.422;2023-03-23T11:43:25;68.87;;;64.67;;
5710;SDS011;61291;52.524;13.422;2023-03-23T11:46:02;64.43;;;60.15;;
5710;SDS011;61291;52.524;13.422;2023-03-23T11:48:38;64.60;;;60.40;;
5710;SDS011;61291;52.524;13.422;2023-03-23T11:51:33;70.10;;;65.63;;
5710;SDS011;61291;52.524;13.422;2023-03-23T11:54:10;73.03;;;67.80;;
5710;SDS011;61291;52.524;13.422;2023-03-23T11:56:43;60.58;;;56.55;;
5710;SDS011;61291;52.524;13.422;2023-03-23T11:59:14;65.40;;;60.70;;
5710;SDS011;61291;52.524;13.422;2023-03-23T12:04:26;64.80;;;60.43;;
5710;SDS011;61291;52.524;13.422;2023-03-23T12:07:09;73.73;;;68.40;;
5710;SDS011;61291;52.524;13.422;2023-03-23T12:16:04;66.63;;;60.87;;
5710;SDS011;61291;52.524;13.422;2023-03-23T12:18:54;64.03;;;59.50;;
5710;SDS011;61291;52.524;13.422;2023-03-23T12:21:45;65.33;;;60.47;;
5710;SDS011;61291;52.524;13.422;2023-03-23T12:26:54;60.83;;;56.73;;
5710;SDS011;61291;52.524;13.422;2023-03-23T12:29:33;63.87;;;59.77;;
5710;SDS011;61291;52.524;13.422;2023-03-23T12:32:18;63.53;;;59.03;;
5710;SDS011;61291;52.524;13.422;2023-03-23T12:35:11;64.10;;;60.20;;
5710;SDS011;61291;52.524;13.422;2023-03-23T12:40:32;63.13;;;59.13;;
5710;SDS011;61291;52.524;13.422;2023-03-23T12:43:04;53.85;;;50.13;;
5710;SDS011;61291;52.524;13.422;2023-03-23T12:45:43;60.17;;;56.17;;
5710;SDS011;61291;52.524;13.422;2023-03-23T12:48:23;62.37;;;58.20;;
5710;SDS011;61291;52.524;13.422;2023-03-23T12:54:01;63.90;;;59.80;;
5710;SDS011;61291;52.524;13.422;2023-03-23T12:56:39;61.93;;;57.80;;
5710;SDS011;61291;52.524;13.422;2023-03-23T12:59:25;63.73;;;58.90;;
5710;SDS011;61291;52.524;13.422;2023-03-23T13:07:53;61.87;;;57.67;;
5710;SDS011;61291;52.524;13.422;2023-03-23T13:10:40;66.03;;;61.33;;
5710;SDS011;61291;52.524;13.422;2023-03-23T13:13:23;62.77;;;58.77;;
5710;SDS011;61291;52.524;13.422;2023-03-23T13:16:10;64.47;;;60.37;;
5710;SDS011;61291;52.524;13.422;2023-03-23T13:21:28;68.50;;;63.90;;
5710;SDS011;61291;52.524;13.422;2023-03-23T13:23:59;68.60;;;63.77;;
5710;SDS011;61291;52.524;13.422;2023-03-23T13:26:30;62.53;;;57.63;;
5710;SDS011;61291;52.524;13.422;2023-03-23T13:29:00;66.90;;;62.60;;
5710;SDS011;61291;52.524;13.422;2023-03-23T13:31:34;62.77;;;58.60;;
5710;SDS011;61291;52.524;13.422;2023-03-23T13:34:16;70.27;;;65.20;;
5710;SDS011;61291;52.524;13.422;2023-03-23T13:39:25;65.13;;;60.93;;
5710;SDS011;61291;52.524;13.422;2023-03-23T13:50:03;64.33;;;59.27;;
5710;SDS011;61291;52.524;13.422;2023-03-23T13:57:52;62.37;;;57.40;;
5710;SDS011;61291;52.524;13.422;2023-03-23T14:02:59;65.10;;;60.27;;
5710;SDS011;61291;52.524;13.422;2023-03-23T14:05:29;58.00;;;54.00;;
5710;SDS011;61291;52.524;13.422;2023-03-23T14:13:23;60.60;;;55.80;;
5710;SDS011;61291;52.524;13.422;2023-03-23T14:16:02;62.93;;;58.83;;
5710;SDS011;61291;52.524;13.422;2023-03-23T14:18:36;62.57;;;57.60;;
5710;SDS011;61291;52.524;13.422;2023-03-23T14:21:04;59.10;;;54.43;;
5710;SDS011;61291;52.524;13.422;2023-03-23T14:23:31;60.90;;;56.90;;
5710;SDS011;61291;52.524;13.422;2023-03-23T14:25:58;60.33;;;55.80;;
5710;SDS011;61291;52.524;13.422;2023-03-23T14:28:32;63.57;;;59.03;;
5710;SDS011;61291;52.524;13.422;2023-03-23T14:31:02;59.90;;;55.70;;
5710;SDS011;61291;52.524;13.422;2023-03-23T14:33:27;59.37;;;54.87;;
5710;SDS011;61291;52.524;13.422;2023-03-23T14:35:53;58.20;;;54.33;;
5710;SDS011;61291;52.524;13.422;2023-03-23T14:38:22;58.97;;;54.73;;
5710;SDS011;61291;52.524;13.422;2023-03-23T14:40:52;55.27;;;50.47;;
5710;SDS011;61291;52.524;13.422;2023-03-23T14:43:19;58.63;;;54.63;;
5710;SDS011;61291;52.524;13.422;2023-03-23T14:45:49;59.23;;;53.50;;
5710;SDS011;61291;52.524;13.422;2023-03-23T14:48:17;48.22;;;44.83;;
5710;SDS011;61291;52.524;13.422;2023-03-23T14:50:48;57.17;;;53.17;;
5710;SDS011;61291;52.524;13.422;2023-03-23T14:53:38;54.13;;;50.23;;
5710;SDS011;61291;52.524;13.422;2023-03-23T14:56:11;56.73;;;52.40;;
5710;SDS011;61291;52.524;13.422;2023-03-23T14:58:42;54.60;;;50.90;;
5710;SDS011;61291;52.524;13.422;2023-03-23T15:01:13;53.00;;;49.60;;
5710;SDS011;61291;52.524;13.422;2023-03-23T15:03:45;58.67;;;54.77;;
5710;SDS011;61291;52.524;13.422;2023-03-23T15:06:35;61.53;;;56.43;;
5710;SDS011;61291;52.524;13.422;2023-03-23T15:09:09;57.63;;;53.27;;
5710;SDS011;61291;52.524;13.422;2023-03-23T15:11:38;56.17;;;52.33;;
5710;SDS011;61291;52.524;13.422;2023-03-23T15:14:10;56.57;;;52.60;;
5710;SDS011;61291;52.524;13.422;2023-03-23T15:16:45;58.07;;;54.23;;
5710;SDS011;61291;52.524;13.422;2023-03-23T15:19:15;58.43;;;53.53;;
5710;SDS011;61291;52.524;13.422;2023-03-23T15:24:31;57.50;;;53.07;;
5710;SDS011;61291;52.524;13.422;2023-03-23T15:27:10;57.77;;;53.87;;
5710;SDS011;61291;52.524;13.422;2023-03-23T15:29:51;60.07;;;56.03;;
5710;SDS011;61291;52.524;13.422;2023-03-23T15:32:25;57.20;;;52.20;;
5710;SDS011;61291;52.524;13.422;2023-03-23T15:34:53;52.42;;;48.88;;
5710;SDS011;61291;52.524;13.422;2023-03-23T15:37:21;58.80;;;54.80;;
5710;SDS011;61291;52.524;13.422;2023-03-23T15:39:57;57.43;;;53.20;;
5710;SDS011;61291;52.524;13.422;2023-03-23T15:42:29;60.33;;;55.90;;
5710;SDS011;61291;52.524;13.422;2023-03-23T15:45:05;58.30;;;54.30;;
5710;SDS011;61291;52.524;13.422;2023-03-23T15:47:45;55.17;;;51.27;;
5710;SDS011;61291;52.524;13.422;2023-03-23T15:52:44;60.47;;;55.90;;
5710;SDS011;61291;52.524;13.422;2023-03-23T15:55:19;60.70;;;56.13;;
5710;SDS011;61291;52.524;13.422;2023-03-23T15:57:49;58.07;;;54.13;;
5710;SDS011;61291;52.524;13.422;2023-03-23T16:00:16;59.30;;;54.03;;